createdAt,value
2024-04-30T00:00:37.318Z,100.16
2024-04-30T00:01:37.394Z,123.81
2024-04-30T00:02:37.425Z,145.60
2024-04-30T00:03:37.495Z,147.15
2024-04-30T00:04:37.601Z,129.77
2024-04-30T00:05:37.593Z,115.14
2024-04-30T00:06:37.537Z,102.51
2024-04-30T00:07:37.622Z,94.94
2024-04-30T00:08:37.625Z,87.85
2024-04-30T00:09:37.680Z,80.56
2024-04-30T00:10:37.768Z,74.61
2024-04-30T00:11:37.787Z,69.78
2024-04-30T00:12:37.850Z,67.27
2024-04-30T00:13:37.975Z,63.38
2024-04-30T00:14:37.991Z,61.25
2024-04-30T00:15:38.060Z,59.21
2024-04-30T00:16:38.172Z,56.25
2024-04-30T00:17:38.247Z,56.07
2024-04-30T00:18:38.281Z,52.77
2024-04-30T00:19:38.359Z,53.39
2024-04-30T00:20:38.400Z,51.95
2024-04-30T00:21:38.458Z,51.39
2024-04-30T00:22:38.530Z,50.42
2024-04-30T00:23:38.585Z,49.72
2024-04-30T00:24:38.659Z,52.18
2024-04-30T00:25:38.722Z,51.57
2024-04-30T00:26:38.768Z,50.71
2024-04-30T00:27:38.829Z,50.00
2024-04-30T00:28:38.892Z,50.03
2024-04-30T00:29:38.959Z,50.98
2024-04-30T00:30:39.008Z,51.05
2024-04-30T00:31:39.083Z,52.83
2024-04-30T00:32:39.188Z,51.08
2024-04-30T00:33:39.183Z,50.50
2024-04-30T00:34:39.270Z,51.29
2024-04-30T00:35:39.297Z,52.26
2024-04-30T00:36:39.344Z,50.93
2024-04-30T00:37:39.448Z,51.36
2024-04-30T00:38:39.442Z,50.33
2024-04-30T00:39:39.498Z,50.29
2024-04-30T00:40:39.625Z,50.79
2024-04-30T00:41:39.620Z,50.61
2024-04-30T00:42:39.699Z,51.25
2024-04-30T00:43:39.710Z,50.19
2024-04-30T00:44:39.770Z,51.27
2024-04-30T00:45:39.843Z,50.50
2024-04-30T00:46:39.966Z,50.47
2024-04-30T00:47:40.004Z,52.07
2024-04-30T00:48:40.033Z,50.01
2024-04-30T00:49:40.096Z,50.00
2024-04-30T00:50:40.087Z,50.49
2024-04-30T00:51:40.126Z,52.33
2024-04-30T00:52:40.164Z,50.74
2024-04-30T00:53:40.225Z,51.04
2024-04-30T00:54:40.275Z,50.88
2024-04-30T00:55:40.326Z,51.65
2024-04-30T00:56:40.376Z,51.52
2024-04-30T00:57:40.423Z,53.68
2024-04-30T00:58:40.493Z,54.12
2024-04-30T00:59:40.521Z,54.98
2024-04-30T01:00:40.629Z,54.41
2024-04-30T01:01:40.757Z,54.43
2024-04-30T01:02:40.714Z,54.03
2024-04-30T01:03:40.770Z,54.33
2024-04-30T01:04:40.805Z,53.95
2024-04-30T01:05:40.835Z,55.65
2024-04-30T01:06:40.886Z,56.32
2024-04-30T01:07:41.024Z,54.50
2024-04-30T01:08:41.000Z,54.85
2024-04-30T01:09:41.043Z,52.79
2024-04-30T01:10:41.104Z,53.48
2024-04-30T01:11:41.190Z,52.06
2024-04-30T01:12:41.186Z,51.41
2024-04-30T01:13:41.248Z,50.32
2024-04-30T01:14:41.282Z,50.75
2024-04-30T01:15:41.332Z,51.11
2024-04-30T01:16:41.377Z,50.85
2024-04-30T01:17:41.522Z,51.40
2024-04-30T01:18:41.489Z,50.48
2024-04-30T01:19:41.538Z,50.79
2024-04-30T01:20:41.586Z,50.79
2024-04-30T01:21:41.656Z,50.97
2024-04-30T01:22:41.733Z,51.08
2024-04-30T01:23:41.740Z,52.47
2024-04-30T01:24:41.797Z,52.06
2024-04-30T01:25:41.865Z,53.47
2024-04-30T01:26:41.893Z,53.43
2024-04-30T01:27:41.939Z,54.90
2024-04-30T01:28:41.996Z,53.26
2024-04-30T01:29:42.033Z,53.33
2024-04-30T01:30:42.087Z,52.75
2024-04-30T01:31:42.145Z,52.21
2024-04-30T01:32:42.244Z,53.04
2024-04-30T01:33:42.278Z,52.36
2024-04-30T01:34:42.331Z,53.40
2024-04-30T01:35:42.369Z,54.11
2024-04-30T01:36:42.402Z,53.78
2024-04-30T01:37:42.488Z,55.04
2024-04-30T01:38:42.505Z,53.15
2024-04-30T01:39:42.613Z,54.23
2024-04-30T01:40:42.633Z,53.81
2024-04-30T01:41:44.214Z,54.33
2024-04-30T01:42:42.661Z,55.50
2024-04-30T01:43:42.687Z,54.81
2024-04-30T01:44:42.660Z,54.67
2024-04-30T01:45:42.689Z,54.99
2024-04-30T01:46:42.727Z,54.17
2024-04-30T01:47:42.710Z,54.27
2024-04-30T01:48:42.717Z,53.58
2024-04-30T01:49:42.678Z,55.23
2024-04-30T01:50:42.663Z,53.51
2024-04-30T01:51:42.688Z,52.84
2024-04-30T01:52:42.680Z,54.15
2024-04-30T01:53:42.685Z,54.16
2024-04-30T01:54:42.676Z,53.20
2024-04-30T01:55:42.683Z,54.13
2024-04-30T01:56:42.697Z,52.50
2024-04-30T01:57:42.696Z,55.04
2024-04-30T01:58:42.691Z,53.18
2024-04-30T01:59:42.692Z,52.77
2024-04-30T02:00:42.720Z,53.35
2024-04-30T02:01:42.709Z,55.16
2024-04-30T02:02:42.725Z,54.15
2024-04-30T02:03:42.766Z,53.54
2024-04-30T02:04:49.203Z,53.04
2024-04-30T02:05:42.742Z,53.17
2024-04-30T02:06:42.714Z,53.43
2024-04-30T02:07:42.764Z,53.86
2024-04-30T02:08:42.711Z,54.15
2024-04-30T02:09:42.729Z,56.52
2024-04-30T02:10:42.804Z,54.36
2024-04-30T02:11:42.709Z,54.85
2024-04-30T02:12:42.709Z,53.85
2024-04-30T02:13:42.721Z,53.80
2024-04-30T02:14:42.712Z,53.35
2024-04-30T02:15:42.731Z,53.87
2024-04-30T02:16:42.723Z,53.38
2024-04-30T02:17:42.817Z,53.13
2024-04-30T02:18:42.725Z,53.58
2024-04-30T02:19:42.719Z,53.40
2024-04-30T02:20:42.727Z,51.80
2024-04-30T02:21:42.758Z,54.24
2024-04-30T02:22:42.737Z,53.33
2024-04-30T02:23:42.749Z,53.45
2024-04-30T02:24:42.745Z,53.16
2024-04-30T02:25:42.768Z,53.20
2024-04-30T02:26:42.756Z,53.42
2024-04-30T02:27:42.754Z,53.99
2024-04-30T02:28:42.753Z,52.50
2024-04-30T02:29:42.772Z,54.20
2024-04-30T02:30:42.756Z,55.11
2024-04-30T02:31:42.760Z,55.71
2024-04-30T02:32:42.939Z,56.56
2024-04-30T02:33:42.764Z,56.51
2024-04-30T02:34:42.769Z,55.43
2024-04-30T02:35:42.770Z,58.17
2024-04-30T02:36:42.773Z,56.26
2024-04-30T02:37:42.874Z,56.59
2024-04-30T02:38:42.847Z,58.08
2024-04-30T02:39:42.905Z,57.44
2024-04-30T02:40:42.969Z,57.00
2024-04-30T02:41:42.997Z,57.06
2024-04-30T02:42:43.048Z,55.00
2024-04-30T02:43:43.109Z,55.54
2024-04-30T02:44:43.167Z,55.37
2024-04-30T02:45:43.204Z,54.94
2024-04-30T02:46:43.341Z,55.37
2024-04-30T02:47:43.414Z,54.14
2024-04-30T02:48:43.361Z,55.18
2024-04-30T02:49:43.398Z,55.01
2024-04-30T02:50:43.448Z,54.34
2024-04-30T02:51:43.494Z,55.67
2024-04-30T02:52:43.626Z,54.80
2024-04-30T02:53:43.651Z,55.23
2024-04-30T02:54:43.659Z,54.52
2024-04-30T02:55:43.719Z,55.89
2024-04-30T02:56:43.764Z,55.57
2024-04-30T02:57:43.815Z,55.44
2024-04-30T02:58:43.907Z,55.48
2024-04-30T02:59:43.943Z,54.36
2024-04-30T03:00:44.035Z,54.89
2024-04-30T03:01:44.108Z,53.77
2024-04-30T03:02:44.130Z,55.48
2024-04-30T03:03:44.240Z,56.23
2024-04-30T03:04:44.228Z,56.63
2024-04-30T03:05:44.264Z,56.05
2024-04-30T03:06:44.307Z,55.09
2024-04-30T03:07:44.356Z,55.72
2024-04-30T03:08:44.416Z,54.63
2024-04-30T03:09:44.489Z,55.22
2024-04-30T03:10:44.524Z,54.62
2024-04-30T03:11:44.580Z,53.42
2024-04-30T03:12:44.633Z,52.34
2024-04-30T03:13:44.811Z,52.97
2024-04-30T03:14:44.750Z,54.33
2024-04-30T03:15:44.795Z,53.75
2024-04-30T03:16:44.845Z,52.88
2024-04-30T03:17:45.000Z,52.77
2024-04-30T03:18:44.975Z,53.24
2024-04-30T03:19:45.008Z,52.61
2024-04-30T03:20:45.063Z,52.25
2024-04-30T03:21:45.126Z,55.16
2024-04-30T03:22:45.163Z,54.13
2024-04-30T03:23:45.245Z,54.46
2024-04-30T03:24:45.288Z,55.15
2024-04-30T03:25:45.393Z,54.61
2024-04-30T03:26:45.413Z,55.47
2024-04-30T03:27:45.461Z,57.19
2024-04-30T03:28:45.562Z,57.99
2024-04-30T03:29:45.572Z,59.24
2024-04-30T03:30:45.655Z,58.07
2024-04-30T03:31:45.696Z,59.76
2024-04-30T03:32:45.792Z,59.87
2024-04-30T03:33:45.803Z,59.38
2024-04-30T03:34:45.907Z,59.73
2024-04-30T03:35:45.931Z,58.65
2024-04-30T03:36:45.979Z,59.64
2024-04-30T03:37:46.042Z,58.41
2024-04-30T03:38:46.112Z,56.73
2024-04-30T03:39:46.159Z,54.85
2024-04-30T03:40:46.318Z,53.53
2024-04-30T03:41:46.293Z,55.64
2024-04-30T03:42:46.335Z,57.24
2024-04-30T03:43:46.396Z,53.93
2024-04-30T03:44:46.454Z,56.88
2024-04-30T03:45:46.506Z,55.82
2024-04-30T03:46:46.562Z,55.77
2024-04-30T03:47:46.673Z,55.90
2024-04-30T03:48:46.687Z,56.16
2024-04-30T03:49:46.752Z,55.44
2024-04-30T03:50:46.797Z,59.71
2024-04-30T03:51:46.864Z,59.75
2024-04-30T03:52:46.945Z,61.10
2024-04-30T03:53:46.971Z,63.93
2024-04-30T03:54:47.028Z,64.17
2024-04-30T03:55:47.080Z,67.66
2024-04-30T03:56:47.171Z,68.08
2024-04-30T03:57:47.221Z,69.21
2024-04-30T03:58:47.288Z,69.52
2024-04-30T03:59:47.301Z,69.92
2024-04-30T04:00:47.410Z,71.36
2024-04-30T04:01:47.450Z,71.06
2024-04-30T04:02:47.539Z,72.10
2024-04-30T04:03:47.590Z,73.04
2024-04-30T04:04:47.584Z,72.36
2024-04-30T04:05:47.656Z,73.32
2024-04-30T04:06:47.710Z,73.16
2024-04-30T04:07:47.781Z,73.57
2024-04-30T04:08:47.835Z,74.78
2024-04-30T04:09:48.004Z,75.98
2024-04-30T04:10:48.042Z,77.15
2024-04-30T04:11:48.087Z,76.64
2024-04-30T04:12:48.068Z,76.74
2024-04-30T04:13:48.203Z,76.39
2024-04-30T04:14:48.726Z,76.05
2024-04-30T04:15:48.267Z,77.15
2024-04-30T04:16:48.307Z,76.94
2024-04-30T04:17:48.589Z,75.83
2024-04-30T04:18:48.443Z,76.25
2024-04-30T04:19:48.498Z,77.51
2024-04-30T04:20:48.552Z,78.42
2024-04-30T04:21:48.608Z,78.98
2024-04-30T04:22:48.672Z,78.78
2024-04-30T04:23:48.729Z,78.37
2024-04-30T04:24:48.803Z,78.77
2024-04-30T04:25:48.852Z,78.82
2024-04-30T04:26:48.920Z,79.59
2024-04-30T04:27:48.967Z,80.56
2024-04-30T04:28:49.027Z,78.46
2024-04-30T04:29:49.119Z,78.51
2024-04-30T04:30:49.149Z,78.41
2024-04-30T04:31:49.276Z,79.44
2024-04-30T04:32:49.335Z,77.61
2024-04-30T04:33:49.344Z,79.23
2024-04-30T04:34:49.403Z,77.65
2024-04-30T04:35:49.471Z,77.71
2024-04-30T04:36:49.537Z,75.28
2024-04-30T04:37:49.678Z,76.09
2024-04-30T04:38:49.678Z,74.18
2024-04-30T04:39:49.736Z,73.43
2024-04-30T04:40:49.834Z,73.26
2024-04-30T04:41:49.862Z,73.16
2024-04-30T04:42:49.921Z,74.23
2024-04-30T04:43:50.040Z,74.23
2024-04-30T04:44:50.052Z,72.69
2024-04-30T04:45:50.128Z,74.18
2024-04-30T04:46:57.349Z,50.00
2024-04-30T04:47:58.435Z,50.00
2024-04-30T04:48:58.355Z,50.00
2024-04-30T04:49:58.357Z,50.00
2024-04-30T04:50:58.356Z,50.00
2024-04-30T04:51:58.368Z,50.67
2024-04-30T04:52:58.389Z,51.35
2024-04-30T04:53:58.371Z,51.41
2024-04-30T04:55:00.476Z,53.17
2024-04-30T04:55:58.374Z,52.48
2024-04-30T04:56:58.389Z,50.36
2024-04-30T04:57:58.377Z,50.48
2024-04-30T04:58:58.397Z,50.00
2024-04-30T04:59:58.381Z,51.79
2024-04-30T05:00:58.432Z,51.44
2024-04-30T05:01:58.475Z,51.90
2024-04-30T05:02:58.386Z,50.00
2024-04-30T05:03:58.437Z,52.41
2024-04-30T05:04:58.491Z,53.46
2024-04-30T05:05:58.395Z,53.45
2024-04-30T05:07:00.012Z,51.55
2024-04-30T05:07:58.398Z,51.66
2024-04-30T05:08:58.424Z,52.40
2024-04-30T05:09:58.403Z,53.28
2024-04-30T05:10:58.425Z,54.03
2024-04-30T05:11:58.422Z,54.58
2024-04-30T05:12:58.412Z,57.52
2024-04-30T05:13:58.401Z,61.38
2024-04-30T05:14:58.409Z,60.42
2024-04-30T05:15:58.417Z,61.26
2024-04-30T05:16:58.450Z,60.15
2024-04-30T05:17:58.497Z,60.98
2024-04-30T05:18:58.410Z,60.27
2024-04-30T05:19:58.409Z,62.78
2024-04-30T05:20:58.420Z,61.81
2024-04-30T05:21:58.431Z,63.03
2024-04-30T05:22:58.416Z,62.53
2024-04-30T05:23:58.456Z,60.71
2024-04-30T05:24:58.417Z,60.51
2024-04-30T05:25:58.419Z,61.23
2024-04-30T05:26:58.421Z,68.59
2024-04-30T05:27:58.433Z,66.69
2024-04-30T05:28:58.421Z,71.70
2024-04-30T05:29:58.495Z,74.02
2024-04-30T05:30:58.432Z,76.99
2024-04-30T05:31:58.431Z,82.96
2024-04-30T05:32:58.553Z,86.79
2024-04-30T05:33:58.537Z,88.07
2024-04-30T05:34:58.584Z,98.00
2024-04-30T05:35:58.664Z,101.87
2024-04-30T05:36:58.733Z,107.07
2024-04-30T05:37:58.803Z,111.12
2024-04-30T05:39:02.140Z,116.07
2024-04-30T05:39:58.861Z,116.33
2024-04-30T05:40:58.882Z,117.64
2024-04-30T05:41:58.970Z,119.78
2024-04-30T05:42:58.866Z,124.80
2024-04-30T05:43:58.883Z,132.26
2024-04-30T05:44:58.924Z,136.78
2024-04-30T05:45:59.585Z,139.53
2024-04-30T05:46:59.048Z,144.12
2024-04-30T05:47:59.154Z,146.22
2024-04-30T05:48:59.155Z,152.83
2024-04-30T05:49:59.484Z,156.07
2024-04-30T05:50:59.271Z,155.73
2024-04-30T05:51:59.339Z,158.68
2024-04-30T05:52:59.409Z,186.75
2024-04-30T05:53:59.473Z,177.30
2024-04-30T05:54:59.623Z,175.92
2024-04-30T05:55:59.631Z,169.88
2024-04-30T05:56:59.687Z,162.88
2024-04-30T05:57:59.741Z,160.75
2024-04-30T05:59:00.000Z,158.80
2024-04-30T05:59:59.824Z,158.97
2024-04-30T06:00:59.909Z,156.04
2024-04-30T06:01:59.998Z,154.02
2024-04-30T06:03:03.580Z,156.80
2024-04-30T06:04:00.634Z,157.11
2024-04-30T06:05:00.360Z,158.43
2024-04-30T06:06:00.529Z,161.14
2024-04-30T06:07:00.021Z,168.17
2024-04-30T06:08:00.036Z,180.20
2024-04-30T06:09:00.054Z,186.80
2024-04-30T06:10:00.206Z,194.89
2024-04-30T06:11:00.155Z,199.34
2024-04-30T06:12:00.143Z,200.00
2024-04-30T06:13:00.156Z,198.69
2024-04-30T06:14:00.232Z,200.95
2024-04-30T06:15:00.239Z,200.28
2024-04-30T06:16:00.194Z,198.38
2024-04-30T06:17:00.210Z,199.71
2024-04-30T06:18:00.409Z,199.10
2024-04-30T06:19:00.453Z,199.99
2024-04-30T06:20:00.437Z,200.32
2024-04-30T06:21:00.253Z,200.00
2024-04-30T06:22:00.246Z,199.89
2024-04-30T06:23:00.273Z,199.29
2024-04-30T06:24:00.368Z,200.00
2024-04-30T06:25:00.400Z,199.39
2024-04-30T06:26:00.491Z,195.38
2024-04-30T06:27:00.497Z,194.50
2024-04-30T06:28:00.574Z,191.88
2024-04-30T06:29:00.613Z,191.29
2024-04-30T06:30:00.719Z,190.48
2024-04-30T06:31:00.743Z,186.08
2024-04-30T06:32:00.997Z,182.57
2024-04-30T06:33:01.090Z,181.21
2024-04-30T06:34:00.994Z,178.36
2024-04-30T06:35:01.126Z,175.62
2024-04-30T06:36:01.104Z,175.19
2024-04-30T06:37:01.229Z,172.13
2024-04-30T06:38:01.233Z,169.72
2024-04-30T06:39:01.323Z,167.08
2024-04-30T06:40:01.382Z,161.82
2024-04-30T06:41:01.524Z,159.78
2024-04-30T06:42:01.528Z,154.52
2024-04-30T06:43:01.593Z,153.87
2024-04-30T06:44:01.664Z,151.77
2024-04-30T06:45:01.725Z,148.95
2024-04-30T06:46:02.099Z,146.71
2024-04-30T06:47:02.508Z,146.79
2024-04-30T06:48:02.216Z,144.26
2024-04-30T06:49:02.656Z,145.62
2024-04-30T06:50:02.081Z,146.77
2024-04-30T06:51:02.169Z,147.16
2024-04-30T06:52:02.381Z,147.97
2024-04-30T06:53:02.294Z,150.19
2024-04-30T06:54:02.376Z,152.43
2024-04-30T06:55:05.615Z,155.64
2024-04-30T06:56:02.514Z,155.81
2024-04-30T06:57:02.378Z,156.60
2024-04-30T06:58:02.501Z,154.91
2024-04-30T06:59:02.450Z,146.87
2024-04-30T07:00:02.387Z,139.73
2024-04-30T07:01:02.456Z,132.56
2024-04-30T07:02:02.413Z,130.54
2024-04-30T07:03:02.553Z,134.91
2024-04-30T07:04:02.697Z,135.50
2024-04-30T07:05:02.516Z,137.71
2024-04-30T07:06:02.416Z,137.45
2024-04-30T07:07:02.442Z,136.45
2024-04-30T07:08:02.392Z,139.06
2024-04-30T07:09:02.426Z,141.04
2024-04-30T07:10:02.507Z,142.93
2024-04-30T07:11:03.184Z,146.27
2024-04-30T07:12:02.419Z,147.70
2024-04-30T07:13:02.552Z,149.65
2024-04-30T07:14:02.443Z,154.05
2024-04-30T07:15:02.404Z,156.43
2024-04-30T07:16:02.495Z,159.04
2024-04-30T07:17:07.853Z,161.17
2024-04-30T07:18:02.497Z,161.39
2024-04-30T07:19:02.470Z,162.76
2024-04-30T07:20:02.409Z,164.71
2024-04-30T07:21:02.415Z,168.27
2024-04-30T07:22:02.449Z,174.37
2024-04-30T07:23:02.436Z,176.32
2024-04-30T07:24:02.517Z,177.54
2024-04-30T07:25:02.649Z,180.20
2024-04-30T07:26:02.424Z,182.76
2024-04-30T07:27:02.424Z,182.79
2024-04-30T07:28:02.438Z,184.60
2024-04-30T07:29:02.440Z,183.92
2024-04-30T07:30:02.406Z,188.98
2024-04-30T07:31:02.504Z,190.88
2024-04-30T07:32:02.524Z,194.25
2024-04-30T07:33:02.560Z,197.71
2024-04-30T07:34:02.684Z,200.00
2024-04-30T07:35:02.543Z,198.98
2024-04-30T07:36:02.478Z,199.57
2024-04-30T07:37:02.584Z,195.74
2024-04-30T07:38:02.557Z,197.16
2024-04-30T07:39:02.440Z,200.00
2024-04-30T07:40:02.604Z,199.84
2024-04-30T07:41:02.700Z,200.00
2024-04-30T07:42:04.008Z,200.00
2024-04-30T07:43:02.567Z,200.14
2024-04-30T07:44:02.595Z,200.36
2024-04-30T07:45:02.499Z,200.62
2024-04-30T07:46:02.607Z,200.85
2024-04-30T07:47:02.470Z,202.46
2024-04-30T07:48:02.650Z,199.50
2024-04-30T07:49:02.537Z,196.86
2024-04-30T07:50:02.470Z,196.86
2024-04-30T07:51:02.469Z,183.48
2024-04-30T07:52:02.515Z,184.88
2024-04-30T07:53:02.547Z,181.90
2024-04-30T07:54:02.458Z,178.85
2024-04-30T07:55:02.573Z,177.63
2024-04-30T07:56:05.762Z,175.87
2024-04-30T07:57:02.448Z,174.88
2024-04-30T07:59:18.042Z,169.32
2024-04-30T08:00:05.727Z,169.07
2024-04-30T08:01:02.583Z,166.43
2024-04-30T08:02:02.589Z,157.13
2024-04-30T08:03:02.964Z,144.74
2024-04-30T08:04:02.554Z,137.25
2024-04-30T08:05:02.458Z,128.96
2024-04-30T08:06:10.706Z,118.88
2024-04-30T08:07:02.625Z,116.24
2024-04-30T08:08:02.479Z,108.99
2024-04-30T08:09:02.531Z,101.12
2024-04-30T08:10:02.478Z,95.22
2024-04-30T08:11:02.477Z,90.37
2024-04-30T08:12:08.402Z,86.28
2024-04-30T08:13:03.080Z,86.30
2024-04-30T08:14:02.498Z,86.01
2024-04-30T08:15:02.816Z,81.88
2024-04-30T08:16:02.481Z,78.75
2024-04-30T08:17:02.673Z,77.56
2024-04-30T08:18:02.621Z,75.60
2024-04-30T08:19:02.566Z,73.82
2024-04-30T08:20:02.490Z,72.53
2024-04-30T08:21:02.545Z,71.77
2024-04-30T08:22:02.490Z,69.79
2024-04-30T08:23:02.506Z,69.11
2024-04-30T08:24:02.469Z,68.19
2024-04-30T08:25:02.589Z,69.22
2024-04-30T08:26:02.600Z,71.02
2024-04-30T08:27:02.466Z,71.27
2024-04-30T08:28:02.527Z,71.91
2024-04-30T08:29:02.477Z,71.12
2024-04-30T08:30:02.512Z,71.20
2024-04-30T08:31:02.634Z,71.14
2024-04-30T08:32:02.589Z,70.65
2024-04-30T08:33:02.766Z,70.64
2024-04-30T08:34:02.719Z,70.87
2024-04-30T08:35:02.739Z,69.58
2024-04-30T08:36:02.782Z,68.69
2024-04-30T08:37:02.851Z,68.56
2024-04-30T08:38:02.980Z,70.23
2024-04-30T08:39:02.952Z,72.44
2024-04-30T08:40:03.021Z,72.15
2024-04-30T08:41:03.005Z,73.04
2024-04-30T08:42:04.137Z,71.97
2024-04-30T08:43:03.154Z,71.03
2024-04-30T08:44:03.545Z,65.77
2024-04-30T08:45:03.563Z,56.09
2024-04-30T08:46:03.325Z,50.00
2024-04-30T08:47:03.429Z,50.65
2024-04-30T08:48:03.438Z,51.12
2024-04-30T08:49:03.485Z,54.54
2024-04-30T08:50:09.855Z,55.10
2024-04-30T08:51:03.650Z,55.19
2024-04-30T08:52:03.532Z,56.23
2024-04-30T08:53:03.605Z,57.06
2024-04-30T08:54:03.499Z,58.63
2024-04-30T08:55:03.648Z,56.65
2024-04-30T08:56:03.599Z,55.04
2024-04-30T08:57:03.507Z,53.91
2024-04-30T08:58:03.549Z,53.95
2024-04-30T08:59:03.506Z,54.96
2024-04-30T09:00:03.518Z,53.19
2024-04-30T09:01:03.618Z,54.44
2024-04-30T09:02:03.497Z,56.14
2024-04-30T09:03:03.667Z,57.27
2024-04-30T09:04:03.608Z,60.93
2024-04-30T09:05:03.551Z,60.95
2024-04-30T09:06:03.502Z,63.41
2024-04-30T09:07:03.642Z,63.68
2024-04-30T09:08:03.508Z,64.30
2024-04-30T09:09:03.510Z,66.21
2024-04-30T09:10:03.542Z,62.37
2024-04-30T09:11:03.604Z,61.98
2024-04-30T09:12:03.659Z,64.32
2024-04-30T09:13:03.618Z,61.59
2024-04-30T09:14:03.500Z,61.45
2024-04-30T09:15:03.567Z,61.10
2024-04-30T09:16:04.736Z,60.17
2024-04-30T09:17:03.704Z,61.69
2024-04-30T09:18:03.678Z,63.12
2024-04-30T09:19:03.766Z,64.08
2024-04-30T09:20:03.688Z,64.33
2024-04-30T09:21:16.118Z,63.90
2024-04-30T09:22:03.774Z,64.07
2024-04-30T09:23:03.726Z,64.61
2024-04-30T09:24:03.730Z,65.66
2024-04-30T09:25:04.090Z,67.62
2024-04-30T09:26:03.738Z,66.79
2024-04-30T09:27:04.056Z,68.76
2024-04-30T09:28:03.763Z,72.08
2024-04-30T09:29:03.746Z,74.58
2024-04-30T09:30:03.753Z,74.43
2024-04-30T09:31:04.120Z,76.97
2024-04-30T09:32:03.754Z,88.57
2024-04-30T09:33:03.818Z,96.56
2024-04-30T09:34:03.785Z,102.52
2024-04-30T09:35:03.876Z,105.60
2024-04-30T09:36:06.684Z,113.58
2024-04-30T09:37:04.033Z,113.95
2024-04-30T09:38:03.748Z,115.93
2024-04-30T09:39:03.756Z,119.99
2024-04-30T09:40:03.877Z,127.77
2024-04-30T09:41:04.055Z,139.81
2024-04-30T09:42:03.817Z,145.12
2024-04-30T09:43:03.907Z,147.17
2024-04-30T09:44:03.877Z,149.50
2024-04-30T09:45:03.932Z,152.54
2024-04-30T09:46:04.025Z,152.78
2024-04-30T09:47:03.925Z,154.68
2024-04-30T09:48:03.924Z,160.08
2024-04-30T09:49:07.692Z,162.83
2024-04-30T09:50:03.879Z,163.00
2024-04-30T09:51:04.067Z,164.02
2024-04-30T09:52:03.916Z,165.83
2024-04-30T09:53:03.884Z,168.91
2024-04-30T09:54:03.890Z,174.84
2024-04-30T09:55:03.941Z,177.66
2024-04-30T09:56:03.925Z,179.35
2024-04-30T09:57:03.905Z,179.81
2024-04-30T09:58:03.913Z,178.13
2024-04-30T09:59:03.921Z,180.68
2024-04-30T10:00:04.037Z,182.07
2024-04-30T10:01:03.945Z,183.01
2024-04-30T10:02:03.930Z,187.28
2024-04-30T10:03:03.948Z,187.14
2024-04-30T10:04:03.967Z,185.47
2024-04-30T10:05:04.244Z,185.66
2024-04-30T10:06:03.934Z,186.05
2024-04-30T10:07:03.873Z,184.21
2024-04-30T10:08:03.872Z,182.67
2024-04-30T10:09:03.901Z,184.52
2024-04-30T10:10:03.923Z,188.61
2024-04-30T10:11:03.988Z,190.55
2024-04-30T10:12:03.918Z,189.69
2024-04-30T10:13:03.985Z,189.58
2024-04-30T10:14:04.041Z,187.63
2024-04-30T10:15:04.083Z,184.66
2024-04-30T10:16:04.196Z,184.17
2024-04-30T10:17:04.307Z,181.77
2024-04-30T10:18:04.342Z,181.23
2024-04-30T10:19:04.605Z,179.58
2024-04-30T10:20:04.348Z,181.10
2024-04-30T10:21:04.440Z,177.90
2024-04-30T10:22:04.517Z,174.66
2024-04-30T10:23:04.519Z,173.65
2024-04-30T10:24:04.566Z,175.02
2024-04-30T10:25:04.703Z,173.25
2024-04-30T10:26:04.679Z,174.16
2024-04-30T10:27:05.183Z,170.80
2024-04-30T10:28:04.779Z,163.47
2024-04-30T10:29:04.808Z,167.00
2024-04-30T10:30:04.852Z,170.02
2024-04-30T10:31:05.116Z,178.90
2024-04-30T10:32:04.936Z,179.57
2024-04-30T10:33:05.545Z,181.11
2024-04-30T10:34:05.051Z,180.40
2024-04-30T10:35:05.589Z,175.27
2024-04-30T10:36:05.055Z,174.17
2024-04-30T10:37:05.305Z,170.12
2024-04-30T10:38:05.234Z,171.15
2024-04-30T10:39:05.304Z,169.52
2024-04-30T10:40:05.572Z,171.11
2024-04-30T10:41:05.307Z,175.49
2024-04-30T10:42:05.280Z,176.26
2024-04-30T10:43:05.557Z,170.11
2024-04-30T10:44:05.351Z,166.00
2024-04-30T10:45:05.373Z,163.81
2024-04-30T10:46:05.414Z,163.31
2024-04-30T10:47:05.551Z,162.83
2024-04-30T10:48:05.561Z,161.66
2024-04-30T10:49:07.588Z,166.35
2024-04-30T10:50:16.235Z,168.94
2024-04-30T10:51:05.483Z,169.38
2024-04-30T10:52:05.549Z,170.72
2024-04-30T10:53:05.501Z,173.65
2024-04-30T10:54:05.482Z,178.55
2024-04-30T10:55:05.505Z,186.73
2024-04-30T10:56:05.487Z,187.54
2024-04-30T10:57:05.482Z,188.49
2024-04-30T10:58:05.502Z,189.57
2024-04-30T10:59:05.486Z,187.52
2024-04-30T11:00:05.613Z,188.04
2024-04-30T11:01:05.663Z,190.13
2024-04-30T11:02:05.495Z,188.17
2024-04-30T11:03:05.535Z,188.41
2024-04-30T11:04:05.657Z,187.52
2024-04-30T11:05:05.855Z,185.50
2024-04-30T11:06:05.491Z,183.34
2024-04-30T11:07:05.670Z,182.62
2024-04-30T11:08:05.604Z,179.02
2024-04-30T11:09:05.523Z,178.30
2024-04-30T11:10:05.584Z,176.12
2024-04-30T11:11:05.521Z,172.85
2024-04-30T11:12:05.601Z,168.45
2024-04-30T11:13:05.676Z,171.80
2024-04-30T11:14:05.559Z,175.32
2024-04-30T11:15:05.624Z,174.26
2024-04-30T11:16:10.800Z,173.12
2024-04-30T11:17:05.691Z,173.26
2024-04-30T11:18:05.721Z,173.58
2024-04-30T11:19:05.682Z,173.81
2024-04-30T11:20:05.553Z,171.48
2024-04-30T11:21:05.589Z,169.30
2024-04-30T11:22:05.692Z,166.50
2024-04-30T11:23:05.651Z,166.13
2024-04-30T11:24:05.652Z,161.96
2024-04-30T11:25:05.739Z,158.55
2024-04-30T11:26:05.568Z,156.16
2024-04-30T11:27:05.641Z,152.22
2024-04-30T11:28:05.688Z,150.52
2024-04-30T11:29:22.516Z,147.66
2024-04-30T11:30:05.646Z,147.72
2024-04-30T11:31:05.587Z,148.09
2024-04-30T11:32:05.593Z,143.20
2024-04-30T11:33:05.599Z,141.10
2024-04-30T11:34:06.049Z,137.50
2024-04-30T11:35:05.550Z,136.64
2024-04-30T11:36:05.538Z,138.02
2024-04-30T11:37:05.629Z,135.92
2024-04-30T11:38:05.613Z,134.76
2024-04-30T11:39:05.553Z,132.13
2024-04-30T11:40:05.661Z,133.54
2024-04-30T11:41:05.775Z,129.02
2024-04-30T11:42:17.658Z,125.97
2024-04-30T11:43:06.220Z,126.14
2024-04-30T11:44:05.892Z,126.28
2024-04-30T11:45:06.105Z,125.32
2024-04-30T11:46:05.639Z,124.57
2024-04-30T11:47:05.629Z,121.68
2024-04-30T11:48:05.587Z,118.63
2024-04-30T11:49:05.671Z,120.15
2024-04-30T11:50:05.566Z,119.90
2024-04-30T11:51:05.566Z,119.16
2024-04-30T11:52:06.143Z,115.32
2024-04-30T11:53:05.694Z,111.81
2024-04-30T11:54:05.562Z,112.68
2024-04-30T11:55:05.621Z,110.10
2024-04-30T11:56:05.574Z,112.04
2024-04-30T11:57:05.582Z,109.85
2024-04-30T11:58:05.594Z,111.01
2024-04-30T11:59:05.583Z,107.06
2024-04-30T12:00:05.602Z,110.41
2024-04-30T12:01:05.791Z,109.58
2024-04-30T12:02:05.876Z,108.20
2024-04-30T12:03:05.935Z,110.29
2024-04-30T12:04:06.063Z,112.27
2024-04-30T12:05:06.078Z,120.70
2024-04-30T12:06:06.104Z,119.91
2024-04-30T12:07:06.125Z,124.49
2024-04-30T12:08:06.107Z,128.42
2024-04-30T12:09:06.178Z,133.26
2024-04-30T12:10:06.717Z,136.34
2024-04-30T12:11:06.447Z,136.66
2024-04-30T12:12:09.589Z,139.97
2024-04-30T12:13:06.406Z,140.12
2024-04-30T12:14:06.386Z,141.84
2024-04-30T12:15:06.403Z,145.09
2024-04-30T12:16:06.528Z,148.45
2024-04-30T12:17:06.488Z,158.85
2024-04-30T12:18:06.462Z,163.16
2024-04-30T12:19:06.455Z,165.25
2024-04-30T12:20:06.405Z,166.22
2024-04-30T12:21:06.385Z,171.16
2024-04-30T12:22:06.449Z,171.04
2024-04-30T12:23:06.390Z,168.09
2024-04-30T12:24:06.392Z,170.19
2024-04-30T12:25:06.472Z,163.90
2024-04-30T12:26:06.408Z,158.08
2024-04-30T12:27:06.415Z,155.32
2024-04-30T12:28:06.531Z,152.41
2024-04-30T12:29:06.470Z,146.45
2024-04-30T12:30:06.404Z,145.88
2024-04-30T12:31:06.466Z,144.42
2024-04-30T12:32:10.586Z,145.73
2024-04-30T12:33:06.419Z,145.76
2024-04-30T12:34:06.419Z,145.26
2024-04-30T12:35:06.645Z,139.91
2024-04-30T12:36:06.377Z,133.61
2024-04-30T12:37:06.425Z,133.44
2024-04-30T12:38:06.384Z,129.73
2024-04-30T12:39:06.380Z,126.06
2024-04-30T12:40:08.285Z,123.39
2024-04-30T12:41:06.399Z,121.05
2024-04-30T12:42:06.385Z,119.68
2024-04-30T12:43:06.566Z,116.45